Terminal Aerodrome Forecast
Issued by NWS Chicago, IL

Home | Current Version | Previous Version | Text Only | Print | Product List | Glossary Off
Versions: 1 2 3 4 5 6 7 8 9 10 11 12 13 14 15 16 17 18 19 20 21 22 23 24 25 26 27 28 29 30 31

000
FTUS43 KLOT 302200 AAB
TAFRFD
TAF AMD
KRFD 302200Z 3022/0118 33010KT P6SM BKN040
     FM010100 VRB04KT P6SM SCT025 BKN200
     FM011400 01006KT P6SM FEW020 BKN150=

USA.gov is the U.S. government's official web portal to all federal, state and local government web resources and services.